Ivory Ray — A8YK4 — position and weather

sailwx.info

Track history (hours):
 
Tides and Currents Weather Stations Pressure Air Temp Water Temp Dewpoint Dewpoint Depression Visibility Wind Speed Wind Dir Waves Ship Positions

Ivory Ray

Last reported at 2017-Nov-17 15:07 UTC. Time now 2017-Nov-18 11:52 UTC.
Position N 25°36' W 079°33'.

Length 147 m; draft 5.2 m.

Type: Ship. MMSI: 636015074.

Date/timePositionNaut miles runAvg speedWind from/ knotsBaromVisibWave heightAir tempDewpointWater temp
2017-Nov-17 15:07N 25°36' W 079°33'214.4
2017-Nov-17 15:00N 25°38' W 079°33'714.4
2017-Nov-17 14:31N 25°45' W 079°32'714.3
2017-Nov-17 14:01N 25°52' W 079°32'1014.5
2017-Nov-17 13:17N 26°02' W 079°31'414.8
2017-Nov-17 13:01N 26°06' W 079°29'814.9
2017-Nov-17 12:30N 26°13' W 079°27'28413.9
2017-Nov-16 16:08N 30°56' W 079°56'1915.6
2017-Nov-16 14:56N 31°14' W 080°03'916.0
2017-Nov-16 14:24N 31°22' W 080°06'615.9
2017-Nov-16 14:00N 31°28' W 080°08'815.9
2017-Nov-16 13:30N 31°36' W 080°10'815.3
2017-Nov-16 13:01N 31°43' W 080°14'815.2
2017-Nov-16 12:31N 31°47' W 080°22'713.6
2017-Nov-16 12:00N 31°50' W 080°29'5 9.5
2017-Nov-16 11:30N 31°53' W 080°34'4 8.8
2017-Nov-16 11:00N 31°55' W 080°38'5 8.9
2017-Nov-16 10:30N 31°57' W 080°43'510.5
2017-Nov-16 10:00N 32°00' W 080°48'510.7
2017-Nov-16 09:30N 32°02' W 080°53'5 9.8
2017-Nov-16 09:00N 32°04' W 080°59'4 7.9
2017-Nov-16 08:30N 32°05' W 081°03'1 1.2
2017-Nov-16 08:00N 32°05' W 081°04'0 0.0
2017-Nov-16 07:26N 32°05' W 081°04'0 0.0
2017-Nov-16 06:56N 32°05' W 081°04'0 0.0
2017-Nov-16 06:20N 32°05' W 081°04'0 0.0
2017-Nov-16 05:56N 32°05' W 081°04'0 0.0
2017-Nov-16 05:26N 32°05' W 081°04'0 0.0
2017-Nov-16 04:56N 32°05' W 081°04'0 0.0
2017-Nov-16 04:26N 32°05' W 081°04'0 0.0
2017-Nov-16 03:56N 32°05' W 081°04'0 0.0
2017-Nov-16 03:26N 32°05' W 081°04'0 0.0
2017-Nov-16 02:56N 32°05' W 081°04'0 0.0
2017-Nov-16 02:26N 32°05' W 081°04'0 0.0
2017-Nov-16 01:56N 32°05' W 081°04'0 0.0
2017-Nov-16 01:26N 32°05' W 081°04'0 0.0
2017-Nov-16 00:56N 32°05' W 081°04'0 0.0
2017-Nov-16 00:26N 32°05' W 081°04'0 0.0
2017-Nov-15 23:56N 32°05' W 081°04'0 0.0
2017-Nov-15 23:26N 32°05' W 081°04'0 0.0
2017-Nov-15 22:56N 32°05' W 081°04'0 0.0
2017-Nov-15 22:26N 32°05' W 081°04'0 0.0
2017-Nov-15 21:56N 32°05' W 081°04'0 0.0
2017-Nov-15 21:26N 32°05' W 081°04'0 0.0
2017-Nov-15 20:56N 32°05' W 081°04'0 0.0
2017-Nov-15 20:26N 32°05' W 081°04'0 0.0
2017-Nov-15 19:50N 32°05' W 081°04'0 0.0
2017-Nov-15 19:26N 32°05' W 081°04'0 0.0
2017-Nov-15 18:56N 32°05' W 081°04'0 0.0
2017-Nov-15 18:26N 32°05' W 081°04'0 0.0
2017-Nov-15 17:56N 32°05' W 081°04'0 0.0
2017-Nov-15 17:26N 32°05' W 081°04'0 0.0
2017-Nov-15 16:56N 32°05' W 081°04'0 0.0
2017-Nov-15 16:26N 32°05' W 081°04'1 1.2
2017-Nov-15 16:00N 32°05' W 081°03'3 6.8
2017-Nov-15 15:30N 32°05' W 080°59'5 9.2
2017-Nov-15 15:00N 32°02' W 080°55'5 9.8
2017-Nov-15 14:30N 32°02' W 080°49'611.0
2017-Nov-15 14:00N 31°59' W 080°44'4 8.1
2017-Nov-15 13:30N 31°57' W 080°40'3 4.8
2017-Nov-15 12:59N 31°60' W 080°39'0 0.2
2017-Nov-15 12:21N 31°60' W 080°39'0 0.0
2017-Nov-15 11:57N 31°60' W 080°39'0 0.0
2017-Nov-15 11:27N 31°60' W 080°39'0 0.0
2017-Nov-15 10:39N 31°60' W 080°39'0 0.0
2017-Nov-15 10:27N 31°60' W 080°39'0 0.0
2017-Nov-15 09:51N 31°60' W 080°39'0 0.0
2017-Nov-15 09:03N 31°60' W 080°39'0 0.1
2017-Nov-15 08:57N 31°60' W 080°39'0 0.0
2017-Nov-15 08:27N 31°60' W 080°39'0 0.0
2017-Nov-15 07:57N 31°60' W 080°39'0 0.0
2017-Nov-15 07:27N 31°60' W 080°39'0 0.0
2017-Nov-15 06:57N 31°60' W 080°39'0 0.0
2017-Nov-15 06:27N 31°60' W 080°39'0 0.0
2017-Nov-15 05:57N 31°60' W 080°39'0 0.0
2017-Nov-15 05:27N 31°60' W 080°39'0 0.0
2017-Nov-15 04:57N 31°60' W 080°39'0 0.2
2017-Nov-15 04:30N 31°60' W 080°39'3 7.0
2017-Nov-15 04:01N 31°57' W 080°38'5 9.3
2017-Nov-15 03:30N 31°53' W 080°34'481 9.7
2017-Nov-13 02:00N 39°11' W 076°27'5 9.3
2017-Nov-13 01:30N 39°13' W 076°32'1 1.1
2017-Nov-13 01:01N 39°13' W 076°32'0 0.0
2017-Nov-13 00:31N 39°13' W 076°32'0 0.0
2017-Nov-12 12:03N 39°13' W 076°32'0 0.0
2017-Nov-12 12:00N 39°13' W 076°32'1 1.4
2017-Nov-12 11:30N 39°13' W 076°31'1 2.6
2017-Nov-12 11:00N 39°12' W 076°30'5 9.4
2017-Nov-12 10:30N 39°10' W 076°25'510.4
2017-Nov-12 10:00N 39°10' W 076°18'611.2
2017-Nov-12 09:30N 39°15' W 076°14'611.7
2017-Nov-12 09:00N 39°20' W 076°11'611.7
2017-Nov-12 08:30N 39°23' W 076°05'510.7
2017-Nov-12 08:00N 39°27' W 075°60'5 9.8
2017-Nov-12 07:30N 39°30' W 075°55'3 6.7
2017-Nov-12 07:00N 39°32' W 075°51'3 6.2
2017-Nov-12 06:30N 39°32' W 075°47'4 7.9
2017-Nov-12 06:00N 39°33' W 075°42'4 7.6
2017-Nov-12 05:30N 39°33' W 075°37'3 6.8
2017-Nov-12 05:00N 39°35' W 075°33'510.0
2017-Nov-12 04:31N 39°40' W 075°32'611.3
2017-Nov-12 04:00N 39°45' W 075°30'5 9.4
2017-Nov-12 03:30N 39°48' W 075°25'510.4
2017-Nov-12 03:00N 39°51' W 075°20'510.5
2017-Nov-12 02:30N 39°52' W 075°13'4 8.8
2017-Nov-12 02:00N 39°54' W 075°08'4 8.3
2017-Nov-12 01:30N 39°58' W 075°07'1 1.9
2017-Nov-12 01:00N 39°59' W 075°06'0 0.0
2017-Nov-12 00:29N 39°59' W 075°06'0 0.0
2017-Nov-11 23:59N 39°59' W 075°06'0 0.0
2017-Nov-11 23:29N 39°59' W 075°06'0 0.0
2017-Nov-11 22:59N 39°59' W 075°06'0 0.0
2017-Nov-11 22:29N 39°59' W 075°06'0 0.0
2017-Nov-11 21:56N 39°59' W 075°06'0 0.0
2017-Nov-11 21:29N 39°59' W 075°06'0 0.0
2017-Nov-11 20:59N 39°59' W 075°06'0 0.0
2017-Nov-11 20:29N 39°59' W 075°06'0 0.0
2017-Nov-11 19:59N 39°59' W 075°06'0 0.0
2017-Nov-11 19:29N 39°59' W 075°06'0 0.0
2017-Nov-11 18:59N 39°59' W 075°06'0 0.0
2017-Nov-11 18:29N 39°59' W 075°06'0 0.0
2017-Nov-11 17:59N 39°59' W 075°06'0 0.0
2017-Nov-11 17:29N 39°59' W 075°06'0 0.0
2017-Nov-11 16:59N 39°59' W 075°06'0 0.0
2017-Nov-11 16:23N 39°59' W 075°06'0 0.0
2017-Nov-11 15:59N 39°59' W 075°06'0 0.0
2017-Nov-11 15:29N 39°59' W 075°06'0 0.0
2017-Nov-11 14:59N 39°59' W 075°06'0 0.0
2017-Nov-11 14:29N 39°59' W 075°06'0 0.0
2017-Nov-11 13:59N 39°59' W 075°06'0 0.0
2017-Nov-11 13:29N 39°59' W 075°06'0 0.0
2017-Nov-11 12:59N 39°59' W 075°06'0 0.0
2017-Nov-11 12:29N 39°59' W 075°06'0 0.0
2017-Nov-11 11:59N 39°59' W 075°06'0 0.0
2017-Nov-11 11:29N 39°59' W 075°06'0 0.0
2017-Nov-11 10:59N 39°59' W 075°06'0 0.0
2017-Nov-11 10:29N 39°59' W 075°06'0 0.0
2017-Nov-11 09:59N 39°59' W 075°06'0 0.0
2017-Nov-11 09:26N 39°59' W 075°06'0 0.0
2017-Nov-11 08:59N 39°59' W 075°06'0 0.0
2017-Nov-11 08:29N 39°59' W 075°06'0 0.0
2017-Nov-11 07:59N 39°59' W 075°06'0 0.0
2017-Nov-11 07:29N 39°59' W 075°06'0 0.0
2017-Nov-11 06:59N 39°59' W 075°06'0 0.0
2017-Nov-11 06:29N 39°59' W 075°06'0 0.0
2017-Nov-11 05:59N 39°59' W 075°06'0 0.0
2017-Nov-11 05:29N 39°59' W 075°06'0 0.0
2017-Nov-11 04:59N 39°59' W 075°06'0 0.0
2017-Nov-11 04:29N 39°59' W 075°06'0 0.0
2017-Nov-11 03:59N 39°59' W 075°06'0 0.0
2017-Nov-11 03:29N 39°59' W 075°06'0 0.0
2017-Nov-11 02:59N 39°59' W 075°06'0 0.0
2017-Nov-11 02:29N 39°59' W 075°06'0 0.0
2017-Nov-11 01:59N 39°59' W 075°06'0 0.0
2017-Nov-11 01:29N 39°59' W 075°06'0 0.0
2017-Nov-11 00:59N 39°59' W 075°06'0 0.2
2017-Nov-11 00:30N 39°59' W 075°06'1 2.2
2017-Nov-11 00:00N 39°58' W 075°07'3 5.9
2017-Nov-10 23:31N 39°55' W 075°08'3 5.2
2017-Nov-10 23:00N 39°53' W 075°10'4 7.7
2017-Nov-10 22:30N 39°51' W 075°14'4 7.6
2017-Nov-10 22:00N 39°51' W 075°19'3 6.9
2017-Nov-10 21:31N 39°49' W 075°23'3 6.7
2017-Nov-10 21:01N 39°47' W 075°27'4 7.5
2017-Nov-10 20:30N 39°45' W 075°30'4 7.6
2017-Nov-10 20:01N 39°41' W 075°31'510.9
2017-Nov-10 19:31N 39°36' W 075°34'611.7
2017-Nov-10 19:01N 39°30' W 075°33'611.3
2017-Nov-10 18:30N 39°25' W 075°31'612.3
2017-Nov-10 18:00N 39°20' W 075°25'612.0
2017-Nov-10 17:31N 39°16' W 075°20'612.0
2017-Nov-10 17:00N 39°11' W 075°16'  
Track history (hours):
 
Tides and Currents Weather Stations Pressure Air Temp Water Temp Dewpoint Dewpoint Depression Visibility Wind Speed Wind Dir Waves Ship Positions

Ivory Ray

Last reported at 2017-Nov-17 15:07 UTC. Time now 2017-Nov-18 11:52 UTC.
Position N 25°36' W 079°33'.

Length 147 m; draft 5.2 m.

Type: Ship. MMSI: 636015074.

Date/timePositionNaut miles runAvg speedWind from/ knotsBaromVisibWave heightAir tempDewpointWater temp
2017-Nov-17 15:07N 25°36' W 079°33'214.4
2017-Nov-17 15:00N 25°38' W 079°33'714.4
2017-Nov-17 14:31N 25°45' W 079°32'714.3
2017-Nov-17 14:01N 25°52' W 079°32'1014.5
2017-Nov-17 13:17N 26°02' W 079°31'414.8
2017-Nov-17 13:01N 26°06' W 079°29'814.9
2017-Nov-17 12:30N 26°13' W 079°27'28413.9
2017-Nov-16 16:08N 30°56' W 079°56'1915.6
2017-Nov-16 14:56N 31°14' W 080°03'916.0
2017-Nov-16 14:24N 31°22' W 080°06'615.9
2017-Nov-16 14:00N 31°28' W 080°08'815.9
2017-Nov-16 13:30N 31°36' W 080°10'815.3
2017-Nov-16 13:01N 31°43' W 080°14'815.2
2017-Nov-16 12:31N 31°47' W 080°22'713.6
2017-Nov-16 12:00N 31°50' W 080°29'5 9.5
2017-Nov-16 11:30N 31°53' W 080°34'4 8.8
2017-Nov-16 11:00N 31°55' W 080°38'5 8.9
2017-Nov-16 10:30N 31°57' W 080°43'510.5
2017-Nov-16 10:00N 32°00' W 080°48'510.7
2017-Nov-16 09:30N 32°02' W 080°53'5 9.8
2017-Nov-16 09:00N 32°04' W 080°59'4 7.9
2017-Nov-16 08:30N 32°05' W 081°03'1 1.2
2017-Nov-16 08:00N 32°05' W 081°04'0 0.0
2017-Nov-16 07:26N 32°05' W 081°04'0 0.0
2017-Nov-16 06:56N 32°05' W 081°04'0 0.0
2017-Nov-16 06:20N 32°05' W 081°04'0 0.0
2017-Nov-16 05:56N 32°05' W 081°04'0 0.0
2017-Nov-16 05:26N 32°05' W 081°04'0 0.0
2017-Nov-16 04:56N 32°05' W 081°04'0 0.0
2017-Nov-16 04:26N 32°05' W 081°04'0 0.0
2017-Nov-16 03:56N 32°05' W 081°04'0 0.0
2017-Nov-16 03:26N 32°05' W 081°04'0 0.0
2017-Nov-16 02:56N 32°05' W 081°04'0 0.0
2017-Nov-16 02:26N 32°05' W 081°04'0 0.0
2017-Nov-16 01:56N 32°05' W 081°04'0 0.0
2017-Nov-16 01:26N 32°05' W 081°04'0 0.0
2017-Nov-16 00:56N 32°05' W 081°04'0 0.0
2017-Nov-16 00:26N 32°05' W 081°04'0 0.0
2017-Nov-15 23:56N 32°05' W 081°04'0 0.0
2017-Nov-15 23:26N 32°05' W 081°04'0 0.0
2017-Nov-15 22:56N 32°05' W 081°04'0 0.0
2017-Nov-15 22:26N 32°05' W 081°04'0 0.0
2017-Nov-15 21:56N 32°05' W 081°04'0 0.0
2017-Nov-15 21:26N 32°05' W 081°04'0 0.0
2017-Nov-15 20:56N 32°05' W 081°04'0 0.0
2017-Nov-15 20:26N 32°05' W 081°04'0 0.0
2017-Nov-15 19:50N 32°05' W 081°04'0 0.0
2017-Nov-15 19:26N 32°05' W 081°04'0 0.0
2017-Nov-15 18:56N 32°05' W 081°04'0 0.0
2017-Nov-15 18:26N 32°05' W 081°04'0 0.0
2017-Nov-15 17:56N 32°05' W 081°04'0 0.0
2017-Nov-15 17:26N 32°05' W 081°04'0 0.0
2017-Nov-15 16:56N 32°05' W 081°04'0 0.0
2017-Nov-15 16:26N 32°05' W 081°04'1 1.2
2017-Nov-15 16:00N 32°05' W 081°03'3 6.8
2017-Nov-15 15:30N 32°05' W 080°59'5 9.2
2017-Nov-15 15:00N 32°02' W 080°55'5 9.8
2017-Nov-15 14:30N 32°02' W 080°49'611.0
2017-Nov-15 14:00N 31°59' W 080°44'4 8.1
2017-Nov-15 13:30N 31°57' W 080°40'3 4.8
2017-Nov-15 12:59N 31°60' W 080°39'0 0.2
2017-Nov-15 12:21N 31°60' W 080°39'0 0.0
2017-Nov-15 11:57N 31°60' W 080°39'0 0.0
2017-Nov-15 11:27N 31°60' W 080°39'0 0.0
2017-Nov-15 10:39N 31°60' W 080°39'0 0.0
2017-Nov-15 10:27N 31°60' W 080°39'0 0.0
2017-Nov-15 09:51N 31°60' W 080°39'0 0.0
2017-Nov-15 09:03N 31°60' W 080°39'0 0.1
2017-Nov-15 08:57N 31°60' W 080°39'0 0.0
2017-Nov-15 08:27N 31°60' W 080°39'0 0.0
2017-Nov-15 07:57N 31°60' W 080°39'0 0.0
2017-Nov-15 07:27N 31°60' W 080°39'0 0.0
2017-Nov-15 06:57N 31°60' W 080°39'0 0.0
2017-Nov-15 06:27N 31°60' W 080°39'0 0.0
2017-Nov-15 05:57N 31°60' W 080°39'0 0.0
2017-Nov-15 05:27N 31°60' W 080°39'0 0.0
2017-Nov-15 04:57N 31°60' W 080°39'0 0.2
2017-Nov-15 04:30N 31°60' W 080°39'3 7.0
2017-Nov-15 04:01N 31°57' W 080°38'5 9.3
2017-Nov-15 03:30N 31°53' W 080°34'481 9.7
2017-Nov-13 02:00N 39°11' W 076°27'5 9.3
2017-Nov-13 01:30N 39°13' W 076°32'1 1.1
2017-Nov-13 01:01N 39°13' W 076°32'0 0.0
2017-Nov-13 00:31N 39°13' W 076°32'0 0.0
2017-Nov-12 12:03N 39°13' W 076°32'0 0.0
2017-Nov-12 12:00N 39°13' W 076°32'1 1.4
2017-Nov-12 11:30N 39°13' W 076°31'1 2.6
2017-Nov-12 11:00N 39°12' W 076°30'5 9.4
2017-Nov-12 10:30N 39°10' W 076°25'510.4
2017-Nov-12 10:00N 39°10' W 076°18'611.2
2017-Nov-12 09:30N 39°15' W 076°14'611.7
2017-Nov-12 09:00N 39°20' W 076°11'611.7
2017-Nov-12 08:30N 39°23' W 076°05'510.7
2017-Nov-12 08:00N 39°27' W 075°60'5 9.8
2017-Nov-12 07:30N 39°30' W 075°55'3 6.7
2017-Nov-12 07:00N 39°32' W 075°51'3 6.2
2017-Nov-12 06:30N 39°32' W 075°47'4 7.9
2017-Nov-12 06:00N 39°33' W 075°42'4 7.6
2017-Nov-12 05:30N 39°33' W 075°37'3 6.8
2017-Nov-12 05:00N 39°35' W 075°33'510.0
2017-Nov-12 04:31N 39°40' W 075°32'611.3
2017-Nov-12 04:00N 39°45' W 075°30'5 9.4
2017-Nov-12 03:30N 39°48' W 075°25'510.4
2017-Nov-12 03:00N 39°51' W 075°20'510.5
2017-Nov-12 02:30N 39°52' W 075°13'4 8.8
2017-Nov-12 02:00N 39°54' W 075°08'4 8.3
2017-Nov-12 01:30N 39°58' W 075°07'1 1.9
2017-Nov-12 01:00N 39°59' W 075°06'0 0.0
2017-Nov-12 00:29N 39°59' W 075°06'0 0.0
2017-Nov-11 23:59N 39°59' W 075°06'0 0.0
2017-Nov-11 23:29N 39°59' W 075°06'0 0.0
2017-Nov-11 22:59N 39°59' W 075°06'0 0.0
2017-Nov-11 22:29N 39°59' W 075°06'0 0.0
2017-Nov-11 21:56N 39°59' W 075°06'0 0.0
2017-Nov-11 21:29N 39°59' W 075°06'0 0.0
2017-Nov-11 20:59N 39°59' W 075°06'0 0.0
2017-Nov-11 20:29N 39°59' W 075°06'0 0.0
2017-Nov-11 19:59N 39°59' W 075°06'0 0.0
2017-Nov-11 19:29N 39°59' W 075°06'0 0.0
2017-Nov-11 18:59N 39°59' W 075°06'0 0.0
2017-Nov-11 18:29N 39°59' W 075°06'0 0.0
2017-Nov-11 17:59N 39°59' W 075°06'0 0.0
2017-Nov-11 17:29N 39°59' W 075°06'0 0.0
2017-Nov-11 16:59N 39°59' W 075°06'0 0.0
2017-Nov-11 16:23N 39°59' W 075°06'0 0.0
2017-Nov-11 15:59N 39°59' W 075°06'0 0.0
2017-Nov-11 15:29N 39°59' W 075°06'0 0.0
2017-Nov-11 14:59N 39°59' W 075°06'0 0.0
2017-Nov-11 14:29N 39°59' W 075°06'0 0.0
2017-Nov-11 13:59N 39°59' W 075°06'0 0.0
2017-Nov-11 13:29N 39°59' W 075°06'0 0.0
2017-Nov-11 12:59N 39°59' W 075°06'0 0.0
2017-Nov-11 12:29N 39°59' W 075°06'0 0.0
2017-Nov-11 11:59N 39°59' W 075°06'0 0.0
2017-Nov-11 11:29N 39°59' W 075°06'0 0.0
2017-Nov-11 10:59N 39°59' W 075°06'0 0.0
2017-Nov-11 10:29N 39°59' W 075°06'0 0.0
2017-Nov-11 09:59N 39°59' W 075°06'0 0.0
2017-Nov-11 09:26N 39°59' W 075°06'0 0.0
2017-Nov-11 08:59N 39°59' W 075°06'0 0.0
2017-Nov-11 08:29N 39°59' W 075°06'0 0.0
2017-Nov-11 07:59N 39°59' W 075°06'0 0.0
2017-Nov-11 07:29N 39°59' W 075°06'0 0.0
2017-Nov-11 06:59N 39°59' W 075°06'0 0.0
2017-Nov-11 06:29N 39°59' W 075°06'0 0.0
2017-Nov-11 05:59N 39°59' W 075°06'0 0.0
2017-Nov-11 05:29N 39°59' W 075°06'0 0.0
2017-Nov-11 04:59N 39°59' W 075°06'0 0.0
2017-Nov-11 04:29N 39°59' W 075°06'0 0.0
2017-Nov-11 03:59N 39°59' W 075°06'0 0.0
2017-Nov-11 03:29N 39°59' W 075°06'0 0.0
2017-Nov-11 02:59N 39°59' W 075°06'0 0.0
2017-Nov-11 02:29N 39°59' W 075°06'0 0.0
2017-Nov-11 01:59N 39°59' W 075°06'0 0.0
2017-Nov-11 01:29N 39°59' W 075°06'0 0.0
2017-Nov-11 00:59N 39°59' W 075°06'0 0.2
2017-Nov-11 00:30N 39°59' W 075°06'1 2.2
2017-Nov-11 00:00N 39°58' W 075°07'3 5.9
2017-Nov-10 23:31N 39°55' W 075°08'3 5.2
2017-Nov-10 23:00N 39°53' W 075°10'4 7.7
2017-Nov-10 22:30N 39°51' W 075°14'4 7.6
2017-Nov-10 22:00N 39°51' W 075°19'3 6.9
2017-Nov-10 21:31N 39°49' W 075°23'3 6.7
2017-Nov-10 21:01N 39°47' W 075°27'4 7.5
2017-Nov-10 20:30N 39°45' W 075°30'4 7.6
2017-Nov-10 20:01N 39°41' W 075°31'510.9
2017-Nov-10 19:31N 39°36' W 075°34'611.7
2017-Nov-10 19:01N 39°30' W 075°33'611.3
2017-Nov-10 18:30N 39°25' W 075°31'612.3
2017-Nov-10 18:00N 39°20' W 075°25'612.0
2017-Nov-10 17:31N 39°16' W 075°20'612.0
2017-Nov-10 17:00N 39°11' W 075°16'  

Dump ship's entire track history